Time;durP1;ratioP1;P1;durP2;ratioP2;P2;SDS_P1;SDS_P2;PMS_P1;PMS_P2;Temp;Humidity;BMP_temperature;BMP_pressure;BME280_temperature;BME280_humidity;BME280_pressure;Samples;Min_cycle;Max_cycle;Signal;HPM_P1;HPM_P2
2023/10/18 00:00:35;;;;;;;450.67;32.30;;;;;;;;;;5036160;28;20092;-81
2023/10/18 00:03:01;;;;;;;694.83;54.72;;;;;;;;;;5032459;28;20064;-81
2023/10/18 00:05:28;;;;;;;24.70;12.80;;;;;;;;;;5017692;28;20037;-81
2023/10/18 00:07:56;;;;;;;79.00;15.40;;;;;;;;;;5027856;28;20041;-81
2023/10/18 00:10:22;;;;;;;53.95;15.02;;;;;;;;;;5037187;28;20068;-83
2023/10/18 00:12:48;;;;;;;58.83;14.05;;;;;;;;;;5037503;28;20047;-82
2023/10/18 00:15:14;;;;;;;632.78;55.17;;;;;;;;;;5037178;28;20097;-81
2023/10/18 00:17:40;;;;;;;205.48;20.83;;;;;;;;;;5038229;28;20500;-82
2023/10/18 00:20:13;;;;;;;396.85;34.95;;;;;;;;;;5042180;28;20033;-79
2023/10/18 00:22:40;;;;;;;547.97;43.42;;;;;;;;;;5041237;28;20097;-82
2023/10/18 00:25:06;;;;;;;263.30;21.10;;;;;;;;;;5037408;28;20464;-80
2023/10/18 00:27:31;;;;;;;110.95;17.60;;;;;;;;;;5021478;28;20044;-79
2023/10/18 00:29:58;;;;;;;94.18;15.73;;;;;;;;;;5018456;28;20022;-82
2023/10/18 00:32:25;;;;;;;68.10;17.52;;;;;;;;;;5016135;28;20084;-81
2023/10/18 00:34:53;;;;;;;27.52;12.80;;;;;;;;;;5017780;28;20033;-81
2023/10/18 00:37:22;;;;;;;159.75;18.40;;;;;;;;;;5035155;28;20508;-84
2023/10/18 00:39:47;;;;;;;163.45;17.90;;;;;;;;;;5034029;28;20493;-80
2023/10/18 00:42:28;;;;;;;373.05;31.02;;;;;;;;;;5028766;28;20028;-82
2023/10/18 00:45:01;;;;;;;627.78;45.25;;;;;;;;;;5017030;28;20037;-82
2023/10/18 00:47:28;;;;;;;246.18;19.35;;;;;;;;;;5022086;28;20088;-82
2023/10/18 00:49:54;;;;;;;201.85;20.67;;;;;;;;;;5016711;28;20037;-80
2023/10/18 00:52:21;;;;;;;466.63;29.02;;;;;;;;;;5016168;28;20120;-81
2023/10/18 00:54:47;;;;;;;340.50;27.27;;;;;;;;;;5014669;28;20272;-83
2023/10/18 00:57:13;;;;;;;369.77;30.23;;;;;;;;;;5015712;28;20109;-80
2023/10/18 00:59:38;;;;;;;357.38;30.13;;;;;;;;;;5015392;28;20442;-83
2023/10/18 01:02:10;;;;;;;455.88;33.03;;;;;;;;;;5034643;28;20037;-81
2023/10/18 01:04:36;;;;;;;983.20;79.22;;;;;;;;;;5036798;28;20049;-83
2023/10/18 01:07:11;;;;;;;524.25;41.05;;;;;;;;;;5035584;28;20038;-82
2023/10/18 01:09:36;;;;;;;351.27;28.25;;;;;;;;;;5036623;28;20048;-82
2023/10/18 01:12:02;;;;;;;296.42;25.77;;;;;;;;;;5035583;28;20120;-81
2023/10/18 01:14:27;;;;;;;690.40;51.50;;;;;;;;;;5029612;28;20048;-79
2023/10/18 01:16:56;;;;;;;385.13;29.75;;;;;;;;;;5036337;28;20532;-82
2023/10/18 01:19:22;;;;;;;231.85;24.60;;;;;;;;;;5023083;28;20498;-83
2023/10/18 01:21:49;;;;;;;323.77;24.45;;;;;;;;;;5015502;28;20083;-84
2023/10/18 01:24:15;;;;;;;1032.22;88.43;;;;;;;;;;5020938;28;20116;-84
2023/10/18 01:26:41;;;;;;;380.50;30.85;;;;;;;;;;5033462;28;20048;-83
2023/10/18 01:29:09;;;;;;;717.70;57.85;;;;;;;;;;5015152;28;20048;-81
2023/10/18 01:31:36;;;;;;;372.38;27.33;;;;;;;;;;5030828;28;20025;-80
2023/10/18 01:34:05;;;;;;;288.20;24.38;;;;;;;;;;5023900;28;20153;-83
2023/10/18 01:36:33;;;;;;;93.95;17.77;;;;;;;;;;5018947;28;20037;-83
2023/10/18 01:38:58;;;;;;;424.35;30.83;;;;;;;;;;5034576;28;20033;-81
2023/10/18 01:44:07;;;;;;;94.82;15.90;;;;;;;;;;5039519;28;20060;-82
2023/10/18 01:46:37;;;;;;;450.92;38.00;;;;;;;;;;5036094;28;20049;-82
2023/10/18 01:49:07;;;;;;;86.78;15.93;;;;;;;;;;5026188;28;20031;-81
2023/10/18 01:51:32;;;;;;;153.60;18.52;;;;;;;;;;5025053;28;20038;-83
2023/10/18 01:54:03;;;;;;;429.20;31.60;;;;;;;;;;5020167;28;20029;-82
2023/10/18 01:56:28;;;;;;;101.68;16.60;;;;;;;;;;5030649;28;20246;-84
2023/10/18 01:58:54;;;;;;;93.28;15.35;;;;;;;;;;5039151;28;20037;-81
2023/10/18 02:01:19;;;;;;;1098.45;91.28;;;;;;;;;;5036880;28;20105;-83
2023/10/18 02:03:45;;;;;;;245.88;21.88;;;;;;;;;;5019136;28;20505;-84
2023/10/18 02:06:14;;;;;;;143.55;19.77;;;;;;;;;;5022291;28;20038;-81
2023/10/18 02:08:40;;;;;;;199.55;21.65;;;;;;;;;;5020242;28;20484;-82
2023/10/18 02:11:08;;;;;;;113.30;19.27;;;;;;;;;;5036454;28;20044;-83
2023/10/18 02:13:34;;;;;;;590.80;50.92;;;;;;;;;;5033597;28;20045;-84
2023/10/18 02:15:59;;;;;;;183.77;23.23;;;;;;;;;;5033321;28;20120;-80
2023/10/18 02:18:27;;;;;;;163.75;20.05;;;;;;;;;;5033611;28;20487;-79
2023/10/18 02:20:53;;;;;;;256.58;26.10;;;;;;;;;;5032963;28;20357;-79
2023/10/18 02:23:21;;;;;;;183.18;22.23;;;;;;;;;;5032315;28;20030;-79
2023/10/18 02:25:47;;;;;;;99.57;17.83;;;;;;;;;;5032063;28;20033;-79
2023/10/18 02:28:22;;;;;;;244.32;25.40;;;;;;;;;;5034799;28;20038;-79
2023/10/18 02:30:56;;;;;;;225.25;27.25;;;;;;;;;;5034490;28;20030;-79
2023/10/18 02:33:39;;;;;;;248.40;28.67;;;;;;;;;;5035080;28;20025;-79
2023/10/18 02:36:09;;;;;;;280.95;26.67;;;;;;;;;;5017000;28;20014;-79
2023/10/18 02:38:37;;;;;;;138.57;21.00;;;;;;;;;;5023541;28;20018;-79
2023/10/18 02:41:14;;;;;;;89.80;20.88;;;;;;;;;;5031128;28;20109;-80
2023/10/18 02:43:45;;;;;;;768.10;80.80;;;;;;;;;;5030316;28;20432;-80
2023/10/18 02:46:23;;;;;;;60.28;17.00;;;;;;;;;;5031686;28;20710;-79
2023/10/18 02:48:51;;;;;;;57.53;18.05;;;;;;;;;;5032261;28;20075;-79
2023/10/18 02:51:22;;;;;;;72.07;17.67;;;;;;;;;;5030759;28;20022;-79
2023/10/18 02:53:53;;;;;;;66.60;17.00;;;;;;;;;;5034255;28;20021;-79
2023/10/18 02:56:27;;;;;;;151.55;20.40;;;;;;;;;;5025187;28;20512;-80
2023/10/18 02:58:57;;;;;;;171.50;22.45;;;;;;;;;;5031284;28;20532;-79
2023/10/18 03:01:25;;;;;;;126.78;19.98;;;;;;;;;;5030892;28;20029;-79
2023/10/18 03:03:55;;;;;;;421.67;40.35;;;;;;;;;;5031810;28;20033;-78
2023/10/18 03:06:24;;;;;;;73.18;17.77;;;;;;;;;;5032969;28;20036;-78
2023/10/18 03:08:50;;;;;;;107.70;18.63;;;;;;;;;;5028606;28;20108;-80
2023/10/18 03:11:20;;;;;;;366.33;34.67;;;;;;;;;;5024738;28;20097;-80
2023/10/18 03:13:45;;;;;;;121.72;19.23;;;;;;;;;;5027403;28;20045;-80
2023/10/18 03:18:41;;;;;;;146.70;20.60;;;;;;;;;;5028307;28;20037;-80
2023/10/18 03:21:08;;;;;;;141.10;20.55;;;;;;;;;;5029470;28;20025;-80
2023/10/18 03:23:44;;;;;;;341.30;32.22;;;;;;;;;;5028998;28;20029;-80
2023/10/18 03:26:11;;;;;;;80.68;16.85;;;;;;;;;;5030730;28;20152;-80
2023/10/18 03:28:40;;;;;;;234.00;22.00;;;;;;;;;;5029310;28;20041;-79
2023/10/18 03:31:28;;;;;;;289.90;28.40;;;;;;;;;;5029629;28;20413;-80
2023/10/18 03:34:13;;;;;;;502.88;40.22;;;;;;;;;;5027839;28;20432;-79
2023/10/18 03:36:48;;;;;;;87.43;16.80;;;;;;;;;;5027526;28;20059;-79
2023/10/18 03:39:18;;;;;;;771.60;72.50;;;;;;;;;;5024633;28;20033;-80
2023/10/18 03:41:46;;;;;;;552.08;46.85;;;;;;;;;;5032291;28;20045;-79
2023/10/18 03:44:13;;;;;;;216.20;23.55;;;;;;;;;;5030284;28;20123;-78
2023/10/18 03:46:46;;;;;;;54.00;15.57;;;;;;;;;;5032591;28;20037;-79
2023/10/18 03:49:16;;;;;;;88.45;16.33;;;;;;;;;;5032997;28;20029;-79
2023/10/18 03:51:46;;;;;;;139.23;18.05;;;;;;;;;;5030906;28;20010;-78
2023/10/18 03:54:14;;;;;;;118.07;17.83;;;;;;;;;;5030554;28;20067;-78
2023/10/18 03:56:42;;;;;;;141.23;18.83;;;;;;;;;;5026763;28;20091;-80
2023/10/18 03:59:24;;;;;;;47.67;14.50;;;;;;;;;;5027141;28;20048;-79
2023/10/18 04:02:35;;;;;;;824.65;68.75;;;;;;;;;;5027214;28;20040;-79
2023/10/18 04:04:36;;;;;;;616.50;56.25;;;;;;;;;;5022859;28;20857;-77
2023/10/18 04:07:12;;;;;;;351.38;27.35;;;;;;;;;;5029712;28;20045;-80
2023/10/18 04:09:47;;;;;;;823.83;57.50;;;;;;;;;;5023498;28;20029;-78
2023/10/18 04:12:17;;;;;;;117.15;17.27;;;;;;;;;;5024075;28;20029;-80
2023/10/18 04:14:50;;;;;;;122.13;18.80;;;;;;;;;;5028559;28;20476;-80
2023/10/18 04:17:19;;;;;;;233.60;22.07;;;;;;;;;;5025561;28;20120;-78
2023/10/18 04:19:47;;;;;;;454.83;38.83;;;;;;;;;;5027045;28;20067;-80
2023/10/18 04:22:13;;;;;;;285.90;24.40;;;;;;;;;;5030820;28;20037;-80
2023/10/18 04:24:39;;;;;;;236.68;22.00;;;;;;;;;;5032133;28;20140;-81
2023/10/18 04:27:04;;;;;;;351.48;31.48;;;;;;;;;;5026832;28;20040;-80
2023/10/18 04:29:33;;;;;;;1604.97;132.25;;;;;;;;;;5029740;28;20470;-80
2023/10/18 04:32:03;;;;;;;26.77;12.82;;;;;;;;;;5031215;28;20032;-80
2023/10/18 04:34:33;;;;;;;38.25;13.68;;;;;;;;;;5027013;28;20031;-81
2023/10/18 04:37:00;;;;;;;1999.90;249.43;;;;;;;;;;5025980;28;20036;-81
2023/10/18 04:39:27;;;;;;;1071.53;79.57;;;;;;;;;;5026341;28;20310;-80
2023/10/18 04:42:03;;;;;;;309.00;28.27;;;;;;;;;;5048384;22;20049;-86
2023/10/18 04:44:34;;;;;;;21.00;12.45;;;;;;;;;;5023273;28;20056;-87
2023/10/18 04:47:04;;;;;;;31.58;13.35;;;;;;;;;;5023440;28;20033;-87
2023/10/18 04:49:38;;;;;;;227.25;21.30;;;;;;;;;;5009223;28;20093;-88
2023/10/18 04:52:28;;;;;;;1240.05;88.40;;;;;;;;;;5003509;28;20042;-89
2023/10/18 04:55:05;;;;;;;96.55;16.17;;;;;;;;;;5004454;28;20041;-88
2023/10/18 04:57:38;;;;;;;41.38;13.18;;;;;;;;;;4991953;28;20062;-89
2023/10/18 05:00:25;;;;;;;26.60;12.23;;;;;;;;;;5007709;28;20388;-89
2023/10/18 05:03:13;;;;;;;27.77;12.82;;;;;;;;;;5010496;28;20029;-91
2023/10/18 05:05:44;;;;;;;504.35;31.20;;;;;;;;;;5008862;28;20038;-87
2023/10/18 05:08:13;;;;;;;89.72;11.85;;;;;;;;;;5016251;28;20068;-85
2023/10/18 05:10:45;;;;;;;1166.10;71.25;;;;;;;;;;5025978;28;20031;-87
2023/10/18 05:13:32;;;;;;;385.85;24.55;;;;;;;;;;4992594;28;20038;-86
2023/10/18 05:16:10;;;;;;;644.88;33.17;;;;;;;;;;5003265;28;20034;-89
2023/10/18 05:18:39;;;;;;;1847.35;135.27;;;;;;;;;;5005155;28;20037;-89
2023/10/18 05:21:10;;;;;;;215.98;16.55;;;;;;;;;;5006075;28;20210;-88
2023/10/18 05:23:40;;;;;;;314.50;16.50;;;;;;;;;;5005459;28;20053;-86
2023/10/18 05:26:17;;;;;;;19.58;10.95;;;;;;;;;;5000586;28;20045;-87
2023/10/18 05:29:00;;;;;;;113.07;12.73;;;;;;;;;;5007548;28;20027;-89
2023/10/18 05:31:48;;;;;;;19.58;10.45;;;;;;;;;;5004301;28;20022;-89
2023/10/18 05:41:49;;;;;;;195.75;13.48;;;;;;;;;;5005515;28;20107;-89
2023/10/18 05:44:15;;;;;;;904.10;52.03;;;;;;;;;;5006370;28;20403;-87
2023/10/18 05:46:41;;;;;;;308.33;17.23;;;;;;;;;;5005183;28;20042;-86
2023/10/18 05:49:15;;;;;;;194.15;15.43;;;;;;;;;;5003748;28;20038;-86
2023/10/18 05:51:57;;;;;;;165.30;14.65;;;;;;;;;;5005518;28;20053;-88
2023/10/18 05:54:24;;;;;;;160.27;11.27;;;;;;;;;;5008203;28;20090;-87
2023/10/18 05:56:50;;;;;;;133.00;13.13;;;;;;;;;;5006015;28;20026;-87
2023/10/18 06:01:46;;;;;;;228.02;14.65;;;;;;;;;;5007107;28;20080;-87
2023/10/18 06:04:23;;;;;;;199.15;14.35;;;;;;;;;;5002868;28;20060;-87
2023/10/18 06:06:49;;;;;;;160.77;12.35;;;;;;;;;;5010554;28;20044;-87
2023/10/18 06:09:26;;;;;;;133.82;12.30;;;;;;;;;;5005276;28;20364;-88
2023/10/18 06:11:52;;;;;;;115.82;11.77;;;;;;;;;;5004497;28;20025;-88
2023/10/18 06:14:17;;;;;;;186.82;16.05;;;;;;;;;;5006256;28;20038;-87
2023/10/18 06:16:42;;;;;;;57.95;11.52;;;;;;;;;;5007129;28;20121;-87
2023/10/18 06:19:13;;;;;;;65.38;11.48;;;;;;;;;;5005900;28;20116;-89
2023/10/18 06:21:46;;;;;;;133.27;11.32;;;;;;;;;;5004298;28;20045;-87
2023/10/18 06:24:11;;;;;;;115.97;11.07;;;;;;;;;;5001806;28;20026;-86
2023/10/18 06:26:40;;;;;;;138.13;12.38;;;;;;;;;;5009087;28;20607;-86
2023/10/18 06:29:09;;;;;;;68.57;10.82;;;;;;;;;;5006953;28;20038;-88
2023/10/18 06:31:40;;;;;;;39.60;10.07;;;;;;;;;;5004570;28;20089;-88
2023/10/18 06:34:10;;;;;;;681.50;44.65;;;;;;;;;;4999477;28;20038;-87
2023/10/18 06:36:38;;;;;;;34.58;10.10;;;;;;;;;;5002859;28;20038;-88
2023/10/18 06:39:05;;;;;;;39.28;12.00;;;;;;;;;;5002784;28;20026;-86
2023/10/18 06:41:31;;;;;;;38.08;9.80;;;;;;;;;;5009501;28;20049;-87
2023/10/18 06:43:59;;;;;;;54.20;12.88;;;;;;;;;;5006776;28;20144;-87
2023/10/18 06:46:30;;;;;;;180.45;19.67;;;;;;;;;;5007171;28;20073;-85
2023/10/18 06:48:59;;;;;;;74.78;12.90;;;;;;;;;;5008369;28;20026;-84
2023/10/18 06:51:31;;;;;;;54.65;12.00;;;;;;;;;;5020139;28;20296;-85
2023/10/18 06:54:03;;;;;;;85.72;15.15;;;;;;;;;;5005481;28;20485;-88
2023/10/18 06:56:45;;;;;;;209.95;25.25;;;;;;;;;;5010175;28;20404;-89
2023/10/18 06:59:10;;;;;;;56.30;12.57;;;;;;;;;;5010460;28;20045;-86
2023/10/18 07:01:42;;;;;;;463.73;42.38;;;;;;;;;;5008543;28;20118;-87
2023/10/18 07:04:15;;;;;;;21.48;11.82;;;;;;;;;;5008300;28;20092;-87
2023/10/18 07:06:44;;;;;;;26.60;12.00;;;;;;;;;;5004328;28;20031;-87
2023/10/18 07:09:24;;;;;;;24.33;11.25;;;;;;;;;;5006989;28;20593;-87
2023/10/18 07:11:57;;;;;;;20.10;10.52;;;;;;;;;;5006868;28;20041;-88
2023/10/18 07:14:24;;;;;;;18.00;9.98;;;;;;;;;;5004682;28;20034;-87
2023/10/18 07:16:54;;;;;;;13.32;9.20;;;;;;;;;;5008317;28;20096;-84
2023/10/18 07:19:26;;;;;;;162.80;17.75;;;;;;;;;;5007344;28;20038;-86
2023/10/18 07:21:56;;;;;;;1125.82;85.22;;;;;;;;;;4999594;28;20030;-85
2023/10/18 07:24:24;;;;;;;27.52;12.18;;;;;;;;;;5004170;28;20026;-88
2023/10/18 07:26:53;;;;;;;19.88;12.32;;;;;;;;;;5009539;28;20025;-88
2023/10/18 07:29:20;;;;;;;67.03;15.35;;;;;;;;;;5004406;28;20034;-88
2023/10/18 07:31:46;;;;;;;121.75;18.15;;;;;;;;;;5008532;28;20018;-89
2023/10/18 07:34:19;;;;;;;15.25;10.30;;;;;;;;;;5007238;28;20121;-87
2023/10/18 07:36:45;;;;;;;96.53;16.02;;;;;;;;;;5016414;28;20061;-88
2023/10/18 07:39:12;;;;;;;19.40;11.80;;;;;;;;;;5005663;28;20473;-88
2023/10/18 07:41:38;;;;;;;32.95;12.15;;;;;;;;;;5002834;28;20034;-89
2023/10/18 07:44:07;;;;;;;26.63;12.60;;;;;;;;;;5015100;28;20035;-89
2023/10/18 07:46:34;;;;;;;69.80;13.00;;;;;;;;;;5017055;28;20039;-89
2023/10/18 07:49:11;;;;;;;16.48;10.10;;;;;;;;;;5030550;28;20097;-88
2023/10/18 07:51:43;;;;;;;11.52;9.55;;;;;;;;;;5024498;28;20041;-91
2023/10/18 07:54:09;;;;;;;9.85;8.68;;;;;;;;;;5020863;28;20022;-90
2023/10/18 07:56:40;;;;;;;9.45;8.00;;;;;;;;;;5023942;28;20054;-90
2023/10/18 08:02:07;;;;;;;;;;;;;;;;;;5009295;28;20096;-87
2023/10/18 08:04:33;;;;;;;6.07;5.57;;;;;;;;;;5012642;28;19913;-89
2023/10/18 08:07:00;;;;;;;7.07;6.38;;;;;;;;;;5013167;28;20046;-89
2023/10/18 08:09:29;;;;;;;7.18;6.50;;;;;;;;;;5019125;28;20109;-88
2023/10/18 08:11:55;;;;;;;8.07;6.38;;;;;;;;;;5009607;28;20018;-87
2023/10/18 08:14:24;;;;;;;8.48;6.72;;;;;;;;;;5004627;28;20076;-86
2023/10/18 08:16:57;;;;;;;9.68;7.90;;;;;;;;;;5013604;28;20495;-87
2023/10/18 08:19:23;;;;;;;8.55;7.28;;;;;;;;;;5007619;28;20420;-86
2023/10/18 08:24:34;;;;;;;9.02;7.85;;;;;;;;;;5017490;28;20117;-86
2023/10/18 08:27:09;;;;;;;8.35;7.20;;;;;;;;;;5014032;28;20041;-88
2023/10/18 08:29:35;;;;;;;6.82;6.20;;;;;;;;;;5014851;28;20117;-87
2023/10/18 08:32:04;;;;;;;8.15;6.22;;;;;;;;;;5010391;28;20033;-86
2023/10/18 08:34:31;;;;;;;8.50;6.55;;;;;;;;;;5007880;28;20093;-88
2023/10/18 08:37:03;;;;;;;6.38;5.53;;;;;;;;;;5003230;28;20046;-87
2023/10/18 08:39:29;;;;;;;6.35;5.30;;;;;;;;;;5007466;28;20041;-89
2023/10/18 08:42:03;;;;;;;6.85;6.18;;;;;;;;;;5007271;28;20018;-88
2023/10/18 08:44:30;;;;;;;7.95;5.97;;;;;;;;;;5006870;28;20042;-87
2023/10/18 08:49:43;;;;;;;7.63;6.70;;;;;;;;;;5002108;28;20053;-88
2023/10/18 08:52:09;;;;;;;7.85;6.32;;;;;;;;;;5009805;28;21392;-88
2023/10/18 08:54:36;;;;;;;8.27;6.60;;;;;;;;;;5000467;28;20080;-87
2023/10/18 08:57:08;;;;;;;7.72;6.55;;;;;;;;;;5008137;28;20034;-88
2023/10/18 08:59:52;;;;;;;8.25;6.80;;;;;;;;;;5008271;28;20149;-87
2023/10/18 09:02:19;;;;;;;7.10;6.32;;;;;;;;;;4998997;28;20034;-87
2023/10/18 09:04:46;;;;;;;8.10;7.25;;;;;;;;;;5006532;28;20510;-88
2023/10/18 09:07:21;;;;;;;5.88;5.22;;;;;;;;;;5008261;28;20030;-87
2023/10/18 09:09:57;;;;;;;7.32;6.63;;;;;;;;;;5007004;28;20040;-89
2023/10/18 09:17:54;;;;;;;;;;;;;;;;;;5009360;28;20085;-87
2023/10/18 09:20:25;;;;;;;4.43;4.03;;;;;;;;;;5006212;28;19924;-89
2023/10/18 09:22:53;;;;;;;5.82;4.85;;;;;;;;;;4971816;28;20038;-89
2023/10/18 09:25:25;;;;;;;6.85;5.63;;;;;;;;;;5011132;28;20401;-89
2023/10/18 09:28:07;;;;;;;5.00;4.50;;;;;;;;;;5009716;28;20050;-88
2023/10/18 09:30:35;;;;;;;5.00;4.22;;;;;;;;;;5011017;28;20042;-90
2023/10/18 09:33:01;;;;;;;4.40;3.72;;;;;;;;;;4999643;28;20022;-89
2023/10/18 09:35:30;;;;;;;5.68;3.67;;;;;;;;;;5012588;28;20041;-89
2023/10/18 09:38:09;;;;;;;3.88;3.58;;;;;;;;;;5007613;28;20484;-89
2023/10/18 09:40:40;;;;;;;4.38;3.30;;;;;;;;;;4977938;28;20377;-89
2023/10/18 09:43:06;;;;;;;4.07;3.70;;;;;;;;;;5011986;28;20072;-89
2023/10/18 09:45:33;;;;;;;3.67;3.38;;;;;;;;;;4997409;28;20500;-88
2023/10/18 09:48:00;;;;;;;4.70;3.42;;;;;;;;;;4984821;28;20035;-88
2023/10/18 09:50:31;;;;;;;6.05;3.95;;;;;;;;;;4990843;28;20034;-88
2023/10/18 09:52:57;;;;;;;4.32;3.72;;;;;;;;;;5006828;28;20039;-88
2023/10/18 09:55:28;;;;;;;3.70;3.38;;;;;;;;;;5005538;28;20129;-89
2023/10/18 10:00:42;;;;;;;3.53;3.22;;;;;;;;;;4994096;28;20079;-78
2023/10/18 10:03:11;;;;;;;5.03;3.25;;;;;;;;;;4979226;28;20486;-78
2023/10/18 10:05:43;;;;;;;4.32;2.90;;;;;;;;;;5001912;28;20046;-78
2023/10/18 10:08:09;;;;;;;11.35;3.38;;;;;;;;;;5000760;28;20030;-78
2023/10/18 10:11:03;;;;;;;3.58;2.95;;;;;;;;;;4982463;28;20223;-78
2023/10/18 10:13:25;;;;;;;2.67;2.47;;;;;;;;;;4998644;28;20038;-78
2023/10/18 10:16:04;;;;;;;3.38;2.65;;;;;;;;;;4987249;28;20034;-78
2023/10/18 10:18:37;;;;;;;2.70;2.47;;;;;;;;;;5020757;28;20030;-79
2023/10/18 10:21:06;;;;;;;6.22;3.13;;;;;;;;;;5015542;28;20026;-77
2023/10/18 10:23:33;;;;;;;3.92;2.70;;;;;;;;;;4993680;28;20053;-79
2023/10/18 10:26:01;;;;;;;3.38;2.72;;;;;;;;;;5014456;28;20042;-78
2023/10/18 10:29:09;;;;;;;4.82;2.90;;;;;;;;;;4996906;28;20270;-78
2023/10/18 10:31:50;;;;;;;3.47;2.72;;;;;;;;;;5011033;28;20606;-78
2023/10/18 10:34:38;;;;;;;2.70;2.50;;;;;;;;;;4998113;28;20030;-78
2023/10/18 10:37:06;;;;;;;3.00;2.80;;;;;;;;;;5012856;28;20708;-78
2023/10/18 10:39:35;;;;;;;2.78;2.58;;;;;;;;;;4996040;28;20037;-77
2023/10/18 10:42:08;;;;;;;5.15;2.80;;;;;;;;;;5050456;22;20077;-78
2023/10/18 10:44:54;;;;;;;3.15;2.78;;;;;;;;;;5051140;28;20053;-78
2023/10/18 10:47:29;;;;;;;3.75;2.95;;;;;;;;;;5055316;28;20401;-78
2023/10/18 10:49:58;;;;;;;3.13;2.83;;;;;;;;;;5053095;28;20451;-79
2023/10/18 10:52:29;;;;;;;4.90;3.25;;;;;;;;;;5054256;28;20492;-79
2023/10/18 10:55:01;;;;;;;3.03;2.80;;;;;;;;;;5033053;28;20106;-79
2023/10/18 10:57:29;;;;;;;3.30;3.00;;;;;;;;;;5055294;28;20047;-79
2023/10/18 10:59:56;;;;;;;3.00;2.63;;;;;;;;;;5053542;28;20063;-79
2023/10/18 11:02:29;;;;;;;3.50;3.20;;;;;;;;;;5053811;28;20033;-78
2023/10/18 11:04:59;;;;;;;4.05;3.70;;;;;;;;;;5054381;28;20468;-79
2023/10/18 11:07:26;;;;;;;3.60;3.30;;;;;;;;;;5054782;28;20033;-79
2023/10/18 11:09:59;;;;;;;4.82;3.42;;;;;;;;;;5051453;28;20047;-79
2023/10/18 11:12:27;;;;;;;4.38;3.90;;;;;;;;;;5055397;28;20032;-79
2023/10/18 11:14:52;;;;;;;3.85;3.55;;;;;;;;;;5055717;28;20013;-79
2023/10/18 11:17:18;;;;;;;5.50;4.25;;;;;;;;;;5036828;28;20052;-79
2023/10/18 11:19:53;;;;;;;6.10;4.28;;;;;;;;;;5053516;28;20036;-79
2023/10/18 11:22:22;;;;;;;4.30;3.90;;;;;;;;;;5052283;28;20411;-78
2023/10/18 11:24:52;;;;;;;5.35;4.07;;;;;;;;;;5051142;28;20036;-79
2023/10/18 11:27:21;;;;;;;4.03;3.63;;;;;;;;;;5052709;28;20037;-77
2023/10/18 11:29:47;;;;;;;4.22;3.83;;;;;;;;;;5036793;28;20021;-79
2023/10/18 11:32:18;;;;;;;6.95;4.25;;;;;;;;;;5051091;28;20074;-80
2023/10/18 11:34:46;;;;;;;4.68;4.28;;;;;;;;;;5054310;28;20044;-79
2023/10/18 11:37:55;;;;;;;4.10;3.70;;;;;;;;;;5055759;28;20488;-78
2023/10/18 11:40:14;;;;;;;5.97;4.30;;;;;;;;;;5039820;28;20522;-78
2023/10/18 11:43:07;;;;;;;5.38;4.30;;;;;;;;;;5055123;28;20057;-79
2023/10/18 11:45:32;;;;;;;6.22;4.07;;;;;;;;;;5052201;28;20079;-79
2023/10/18 11:48:02;;;;;;;4.35;3.60;;;;;;;;;;5033911;28;20020;-80
2023/10/18 11:50:47;;;;;;;4.75;3.80;;;;;;;;;;5040202;28;20128;-80
2023/10/18 11:53:14;;;;;;;3.65;3.35;;;;;;;;;;5044175;28;20032;-79
2023/10/18 11:55:59;;;;;;;4.00;3.58;;;;;;;;;;5037924;28;20033;-79
2023/10/18 11:58:27;;;;;;;4.57;3.70;;;;;;;;;;5028299;28;20036;-78
2023/10/18 12:00:57;;;;;;;11.95;3.78;;;;;;;;;;5045576;28;20048;-78
2023/10/18 12:03:27;;;;;;;3.53;3.20;;;;;;;;;;5052026;28;20076;-78
2023/10/18 12:05:57;;;;;;;5.35;3.03;;;;;;;;;;5044926;28;20028;-80
2023/10/18 12:08:23;;;;;;;3.42;2.90;;;;;;;;;;5048557;28;20046;-80
2023/10/18 12:10:55;;;;;;;3.25;2.95;;;;;;;;;;5031834;28;20113;-79
2023/10/18 12:13:20;;;;;;;5.38;3.75;;;;;;;;;;5034064;28;20040;-79
2023/10/18 12:15:47;;;;;;;3.70;3.40;;;;;;;;;;5053024;28;20036;-79
2023/10/18 12:18:14;;;;;;;9.60;3.72;;;;;;;;;;5043507;28;20028;-79
2023/10/18 12:20:45;;;;;;;5.10;3.53;;;;;;;;;;5045850;28;20024;-79
2023/10/18 12:23:18;;;;;;;4.15;3.60;;;;;;;;;;5053801;28;20052;-79
2023/10/18 12:25:45;;;;;;;4.57;3.92;;;;;;;;;;5035393;28;20037;-78
2023/10/18 12:28:35;;;;;;;4.57;3.60;;;;;;;;;;5046595;28;20078;-79
2023/10/18 12:31:09;;;;;;;6.97;3.30;;;;;;;;;;5036170;28;20066;-78
2023/10/18 12:33:35;;;;;;;4.95;3.70;;;;;;;;;;5038750;28;20088;-79
2023/10/18 12:36:00;;;;;;;4.22;3.55;;;;;;;;;;5040775;28;20029;-78
2023/10/18 12:38:32;;;;;;;3.83;3.42;;;;;;;;;;5038111;28;20053;-79
2023/10/18 12:41:04;;;;;;;4.00;3.60;;;;;;;;;;5040912;28;20040;-79
2023/10/18 12:43:32;;;;;;;4.22;3.80;;;;;;;;;;5038021;28;20033;-78
2023/10/18 12:45:57;;;;;;;4.45;4.03;;;;;;;;;;5040266;28;20041;-79
2023/10/18 12:48:23;;;;;;;4.60;4.10;;;;;;;;;;5042800;28;20514;-79
2023/10/18 12:50:52;;;;;;;4.18;3.78;;;;;;;;;;5053432;28;20102;-79
2023/10/18 12:55:57;;;;;;;4.15;3.63;;;;;;;;;;5053346;28;20033;-78
2023/10/18 12:58:29;;;;;;;5.40;4.28;;;;;;;;;;5050016;28;20033;-79
2023/10/18 13:01:06;;;;;;;7.70;4.30;;;;;;;;;;5045837;28;20037;-79
2023/10/18 13:03:34;;;;;;;3.30;3.00;;;;;;;;;;5035914;28;20052;-79
2023/10/18 13:05:59;;;;;;;4.38;3.92;;;;;;;;;;5052778;28;20310;-79
2023/10/18 13:08:34;;;;;;;3.95;3.50;;;;;;;;;;5034952;28;20044;-79
2023/10/18 13:13:30;;;;;;;4.43;3.53;;;;;;;;;;5054264;28;20554;-78
2023/10/18 13:15:59;;;;;;;6.00;3.55;;;;;;;;;;5045046;28;20086;-77
2023/10/18 13:18:28;;;;;;;6.03;3.60;;;;;;;;;;5033468;28;20087;-79
2023/10/18 13:20:58;;;;;;;5.18;3.55;;;;;;;;;;5034426;28;20025;-78
2023/10/18 13:23:27;;;;;;;3.63;3.30;;;;;;;;;;5049583;28;20033;-79
2023/10/18 13:25:53;;;;;;;5.50;3.38;;;;;;;;;;5048628;28;20043;-80
2023/10/18 13:28:26;;;;;;;3.97;3.25;;;;;;;;;;5048316;28;20033;-79
2023/10/18 13:30:53;;;;;;;3.88;3.00;;;;;;;;;;5032993;28;20371;-78
2023/10/18 13:33:19;;;;;;;3.13;2.60;;;;;;;;;;5042700;28;20056;-79
2023/10/18 13:35:45;;;;;;;3.65;3.05;;;;;;;;;;5038095;28;20013;-80
2023/10/18 13:38:11;;;;;;;3.78;2.95;;;;;;;;;;5036801;28;20029;-79
2023/10/18 13:40:36;;;;;;;6.03;3.50;;;;;;;;;;5045930;28;20132;-80
2023/10/18 13:43:07;;;;;;;3.10;2.80;;;;;;;;;;5048690;28;20104;-80
2023/10/18 13:45:33;;;;;;;5.22;3.50;;;;;;;;;;5050625;28;20112;-78
2023/10/18 13:47:59;;;;;;;3.75;3.10;;;;;;;;;;5049274;28;20022;-79
2023/10/18 13:50:26;;;;;;;4.68;3.00;;;;;;;;;;5035257;28;20524;-80
2023/10/18 13:52:51;;;;;;;4.70;3.03;;;;;;;;;;5052291;28;20044;-78
2023/10/18 13:55:20;;;;;;;7.32;3.60;;;;;;;;;;5053656;28;20025;-79
2023/10/18 13:57:45;;;;;;;6.53;3.17;;;;;;;;;;5052222;28;20029;-80
2023/10/18 14:00:14;;;;;;;4.85;3.40;;;;;;;;;;5051398;28;20120;-80
2023/10/18 14:02:40;;;;;;;5.93;3.60;;;;;;;;;;5050873;28;20049;-80
2023/10/18 14:05:09;;;;;;;4.32;3.58;;;;;;;;;;5056437;28;20178;-79
2023/10/18 14:07:38;;;;;;;8.88;3.47;;;;;;;;;;5051161;28;20112;-79
2023/10/18 14:10:19;;;;;;;6.50;3.58;;;;;;;;;;5048350;28;20037;-79
2023/10/18 14:12:45;;;;;;;4.18;3.65;;;;;;;;;;5054856;28;20037;-78
2023/10/18 14:15:11;;;;;;;4.15;3.15;;;;;;;;;;5063010;28;20021;-78
2023/10/18 14:17:36;;;;;;;3.60;3.20;;;;;;;;;;5060344;28;20051;-79
2023/10/18 14:20:10;;;;;;;3.95;2.90;;;;;;;;;;5057065;28;20052;-78
2023/10/18 14:22:36;;;;;;;;;;;;;;;;;;5055534;28;20068;-79
2023/10/18 14:25:04;;;;;;;5.43;3.08;;;;;;;;;;5053049;28;19924;-79
2023/10/18 14:27:29;;;;;;;3.40;3.10;;;;;;;;;;5035980;28;20032;-79
2023/10/18 14:29:55;;;;;;;4.07;3.33;;;;;;;;;;5027663;28;20022;-79
2023/10/18 14:32:20;;;;;;;3.50;3.15;;;;;;;;;;5046532;28;20055;-82
2023/10/18 14:34:49;;;;;;;4.25;2.97;;;;;;;;;;5037539;28;20083;-82
2023/10/18 14:37:17;;;;;;;4.60;3.60;;;;;;;;;;5019431;28;20030;-82
2023/10/18 14:39:44;;;;;;;3.50;3.20;;;;;;;;;;5019457;28;20036;-79
2023/10/18 14:42:09;;;;;;;4.10;3.38;;;;;;;;;;5049141;28;20520;-81
2023/10/18 14:44:35;;;;;;;3.22;2.92;;;;;;;;;;5058780;28;20031;-81
2023/10/18 14:47:01;;;;;;;3.67;3.38;;;;;;;;;;5055311;28;20614;-81
2023/10/18 14:49:28;;;;;;;5.20;3.70;;;;;;;;;;5037769;28;20033;-80
2023/10/18 14:51:53;;;;;;;3.78;3.47;;;;;;;;;;5036448;28;20091;-80
2023/10/18 14:54:18;;;;;;;3.90;3.60;;;;;;;;;;5038045;28;20432;-80
2023/10/18 14:56:44;;;;;;;7.00;3.72;;;;;;;;;;5038373;28;20055;-79
2023/10/18 14:59:10;;;;;;;7.25;3.70;;;;;;;;;;5019103;28;20033;-82
2023/10/18 15:01:35;;;;;;;4.00;3.13;;;;;;;;;;5033625;28;20044;-80
2023/10/18 15:04:03;;;;;;;9.88;3.83;;;;;;;;;;5038619;28;20044;-82
2023/10/18 15:06:28;;;;;;;4.88;3.70;;;;;;;;;;5056937;28;20025;-77
2023/10/18 15:08:55;;;;;;;5.18;4.05;;;;;;;;;;5056211;28;20028;-82
2023/10/18 15:11:20;;;;;;;3.78;3.38;;;;;;;;;;5055959;28;20458;-79
2023/10/18 15:13:46;;;;;;;4.35;3.75;;;;;;;;;;5039713;28;20108;-82
2023/10/18 15:16:13;;;;;;;4.30;3.70;;;;;;;;;;5057082;28;20029;-82
2023/10/18 15:18:38;;;;;;;4.32;3.90;;;;;;;;;;5026827;28;20140;-82